Time;durP1;ratioP1;P1;durP2;ratioP2;P2;SDS_P1;SDS_P2;PMS_P1;PMS_P2;Temp;Humidity;BMP_temperature;BMP_pressure;BME280_temperature;BME280_humidity;BME280_pressure;Samples;Min_cycle;Max_cycle;Signal;HPM_P1;HPM_P2
2022/02/27 00:00:00;;;;;;;9.13;6.05;;;1.80;99.90;;;;;;5080053;28;20028;-75
2022/02/27 00:02:26;;;;;;;12.57;5.60;;;1.80;99.90;;;;;;5070157;28;20056;-76
2022/02/27 00:04:51;;;;;;;18.13;6.80;;;1.80;99.90;;;;;;5070923;28;20026;-75
2022/02/27 00:07:17;;;;;;;11.02;5.43;;;1.70;99.90;;;;;;5074232;28;20028;-76
2022/02/27 00:09:43;;;;;;;14.07;5.80;;;1.70;99.90;;;;;;5075428;28;20039;-76
2022/02/27 00:12:08;;;;;;;12.68;6.00;;;1.70;99.90;;;;;;5069268;28;20063;-75
2022/02/27 00:14:34;;;;;;;11.95;5.75;;;1.70;99.90;;;;;;5058239;28;20112;-76
2022/02/27 00:17:00;;;;;;;12.50;5.80;;;1.60;99.90;;;;;;5061843;28;20052;-76
2022/02/27 00:19:25;;;;;;;9.10;5.93;;;1.60;99.90;;;;;;5080419;28;20053;-77
2022/02/27 00:21:51;;;;;;;10.50;5.32;;;1.60;99.90;;;;;;5077237;28;20465;-77
2022/02/27 00:24:17;;;;;;;11.55;5.47;;;1.50;99.90;;;;;;5052732;28;20025;-77
2022/02/27 00:26:42;;;;;;;8.90;4.85;;;1.50;99.90;;;;;;5080756;28;20151;-76
2022/02/27 00:29:08;;;;;;;14.02;7.70;;;1.40;99.90;;;;;;5076776;28;20020;-76
2022/02/27 00:31:34;;;;;;;12.55;5.43;;;1.50;99.90;;;;;;5079179;28;20027;-77
2022/02/27 00:33:59;;;;;;;8.90;5.38;;;1.40;99.90;;;;;;5072417;28;20029;-76
2022/02/27 00:36:25;;;;;;;13.93;5.43;;;1.30;99.90;;;;;;5078603;28;20135;-77
2022/02/27 00:38:50;;;;;;;11.48;4.50;;;1.30;99.90;;;;;;5078485;28;20024;-75
2022/02/27 00:41:16;;;;;;;12.38;5.78;;;1.30;99.90;;;;;;5069134;28;20024;-76
2022/02/27 00:43:42;;;;;;;8.85;4.70;;;1.50;99.90;;;;;;5078584;28;20070;-75
2022/02/27 00:46:09;;;;;;;10.98;5.50;;;1.60;99.90;;;;;;5068020;28;20033;-75
2022/02/27 00:48:35;;;;;;;8.30;4.85;;;1.50;99.90;;;;;;5065816;28;20043;-76
2022/02/27 00:51:01;;;;;;;8.68;5.00;;;1.50;99.90;;;;;;5078144;28;20487;-76
2022/02/27 00:53:26;;;;;;;19.48;6.63;;;1.50;99.90;;;;;;5072792;28;20028;-76
2022/02/27 00:55:52;;;;;;;9.23;4.85;;;1.50;99.90;;;;;;5047361;28;20040;-76
2022/02/27 00:58:17;;;;;;;16.13;5.78;;;1.50;99.90;;;;;;5073101;28;20029;-76
2022/02/27 01:00:43;;;;;;;9.48;4.07;;;1.60;99.90;;;;;;5074363;28;20021;-76
2022/02/27 01:03:09;;;;;;;8.93;4.45;;;1.70;99.90;;;;;;5073972;28;20396;-75
2022/02/27 01:05:35;;;;;;;9.02;3.53;;;1.80;99.90;;;;;;5057377;28;20078;-76
2022/02/27 01:08:01;;;;;;;10.45;3.20;;;2.00;99.90;;;;;;5060394;28;20120;-77
2022/02/27 01:10:27;;;;;;;8.10;3.55;;;2.20;99.90;;;;;;5067481;28;20059;-77
2022/02/27 01:12:52;;;;;;;13.48;4.30;;;2.20;99.90;;;;;;5074121;28;20037;-76
2022/02/27 01:15:18;;;;;;;13.52;3.90;;;2.30;99.90;;;;;;5049105;28;20033;-76
2022/02/27 01:17:44;;;;;;;10.43;3.75;;;2.30;99.90;;;;;;5056488;28;20024;-76
2022/02/27 01:20:10;;;;;;;6.93;3.20;;;2.40;99.90;;;;;;5073273;28;20488;-75
2022/02/27 01:22:36;;;;;;;9.60;4.32;;;2.40;99.90;;;;;;5050663;28;20021;-76
2022/02/27 01:25:03;;;;;;;11.93;3.80;;;2.30;99.90;;;;;;5071931;28;20028;-76
2022/02/27 01:27:29;;;;;;;12.88;3.28;;;2.20;99.90;;;;;;5071879;28;20024;-76
2022/02/27 01:29:54;;;;;;;7.78;3.58;;;2.20;99.90;;;;;;5073254;28;20033;-77
2022/02/27 01:32:20;;;;;;;7.43;3.55;;;2.30;99.90;;;;;;5070709;28;20025;-75
2022/02/27 01:34:48;;;;;;;10.57;3.60;;;2.30;99.90;;;;;;5073259;28;20031;-77
2022/02/27 01:37:15;;;;;;;12.73;3.45;;;2.20;99.90;;;;;;5064788;28;20042;-76
2022/02/27 01:39:40;;;;;;;8.35;3.25;;;2.30;99.90;;;;;;5071504;28;20033;-76
2022/02/27 01:42:09;;;;;;;8.55;3.80;;;2.40;99.90;;;;;;5071478;28;20070;-77
2022/02/27 01:44:35;;;;;;;15.20;3.90;;;2.40;99.90;;;;;;5068739;28;20388;-77
2022/02/27 01:47:11;;;;;;;9.70;3.45;;;2.30;99.90;;;;;;5047768;28;20034;-76
2022/02/27 01:49:38;;;;;;;7.22;3.03;;;2.30;99.90;;;;;;5047261;28;20395;-75
2022/02/27 01:52:06;;;;;;;9.95;3.78;;;2.40;99.90;;;;;;5065052;28;20021;-76
2022/02/27 01:54:32;;;;;;;10.50;3.10;;;2.40;99.90;;;;;;5060639;28;20040;-76
2022/02/27 01:56:59;;;;;;;7.75;2.95;;;2.20;99.90;;;;;;5069223;28;20455;-75
2022/02/27 01:59:25;;;;;;;11.25;4.20;;;2.20;99.90;;;;;;5072183;28;20549;-76
2022/02/27 02:01:50;;;;;;;9.02;3.58;;;2.10;99.90;;;;;;5073233;28;20024;-76
2022/02/27 02:04:16;;;;;;;10.10;3.72;;;1.90;99.90;;;;;;5070142;28;20599;-76
2022/02/27 02:06:42;;;;;;;10.43;3.25;;;1.80;99.90;;;;;;5062780;28;20111;-76
2022/02/27 02:09:08;;;;;;;9.93;3.20;;;1.80;99.90;;;;;;5069657;28;20063;-77
2022/02/27 02:11:36;;;;;;;5.85;3.78;;;1.80;99.90;;;;;;5066418;28;20032;-75
2022/02/27 02:14:02;;;;;;;12.57;3.80;;;1.70;99.90;;;;;;5063237;28;20027;-75
2022/02/27 02:16:50;;;;;;;13.95;4.20;;;1.50;99.90;;;;;;5068746;28;20017;-75
2022/02/27 02:19:18;;;;;;;10.90;3.60;;;1.50;99.90;;;;;;5065104;28;20024;-74
2022/02/27 02:21:47;;;;;;;11.98;4.05;;;1.50;99.90;;;;;;5051993;28;20020;-76
2022/02/27 02:24:14;;;;;;;8.98;4.22;;;1.60;99.90;;;;;;5072110;28;20050;-75
2022/02/27 02:26:41;;;;;;;11.57;3.78;;;1.60;99.90;;;;;;5066614;28;20021;-75
2022/02/27 02:29:08;;;;;;;8.32;4.10;;;1.50;99.90;;;;;;5059823;28;20037;-76
2022/02/27 02:31:35;;;;;;;8.75;4.75;;;1.50;99.90;;;;;;5065690;28;20025;-76
2022/02/27 02:34:05;;;;;;;13.48;4.90;;;1.60;99.90;;;;;;5072404;28;20060;-75
2022/02/27 02:36:31;;;;;;;10.27;3.63;;;1.60;99.90;;;;;;5069068;28;20047;-76
2022/02/27 02:38:59;;;;;;;7.43;3.92;;;1.40;99.90;;;;;;5051887;28;20125;-76
2022/02/27 02:41:24;;;;;;;9.02;4.20;;;1.20;99.90;;;;;;5052995;28;20036;-75
2022/02/27 02:43:50;;;;;;;11.43;4.47;;;1.10;99.90;;;;;;5055632;28;20043;-75
2022/02/27 02:46:16;;;;;;;11.10;4.05;;;1.00;99.90;;;;;;5052635;28;20071;-75
2022/02/27 02:48:41;;;;;;;8.73;3.80;;;1.00;99.90;;;;;;5071514;28;20522;-75
2022/02/27 02:51:07;;;;;;;9.73;4.47;;;1.00;99.90;;;;;;5061754;28;20066;-76
2022/02/27 02:53:34;;;;;;;12.52;4.82;;;0.90;99.90;;;;;;5067533;28;20048;-77
2022/02/27 02:56:01;;;;;;;8.55;3.75;;;0.80;99.90;;;;;;5053823;28;20430;-75
2022/02/27 02:58:27;;;;;;;9.02;4.00;;;0.90;99.90;;;;;;5071561;28;20081;-76
2022/02/27 03:00:52;;;;;;;7.57;5.05;;;0.90;99.90;;;;;;5053583;28;20024;-75
2022/02/27 03:03:18;;;;;;;7.50;3.55;;;0.80;99.90;;;;;;5064831;28;20100;-76
2022/02/27 03:05:44;;;;;;;10.10;4.85;;;0.80;99.90;;;;;;5060248;28;20020;-76
2022/02/27 03:08:09;;;;;;;8.80;4.57;;;0.70;99.90;;;;;;5071122;28;20025;-76
2022/02/27 03:10:35;;;;;;;8.75;4.18;;;0.80;99.90;;;;;;5073378;28;20021;-75
2022/02/27 03:13:00;;;;;;;12.02;4.53;;;0.80;99.90;;;;;;5070107;28;20085;-75
2022/02/27 03:15:26;;;;;;;14.40;4.72;;;0.80;99.90;;;;;;5065613;28;20066;-77
2022/02/27 03:17:51;;;;;;;9.02;4.50;;;0.80;99.90;;;;;;5071503;28;20129;-75
2022/02/27 03:20:17;;;;;;;9.27;4.05;;;0.70;99.90;;;;;;5068104;28;20039;-76
2022/02/27 03:22:42;;;;;;;8.65;3.90;;;0.70;99.90;;;;;;5065687;28;20017;-75
2022/02/27 03:25:08;;;;;;;13.90;4.82;;;0.70;99.90;;;;;;5071600;28;20021;-75
2022/02/27 03:27:33;;;;;;;13.82;3.97;;;0.60;99.90;;;;;;5061993;28;20031;-76
2022/02/27 03:29:59;;;;;;;8.05;3.92;;;0.60;99.90;;;;;;5067388;28;20388;-75
2022/02/27 03:32:25;;;;;;;18.80;4.88;;;0.50;99.90;;;;;;5050647;28;20024;-75
2022/02/27 03:34:50;;;;;;;8.15;3.70;;;0.60;99.90;;;;;;5071165;28;20024;-75
2022/02/27 03:37:16;;;;;;;11.98;4.10;;;0.70;99.90;;;;;;5065047;28;20033;-76
2022/02/27 03:39:41;;;;;;;9.75;4.38;;;0.60;99.90;;;;;;5068554;28;20029;-76
2022/02/27 03:42:07;;;;;;;6.45;3.75;;;0.60;99.90;;;;;;5068218;28;20017;-75
2022/02/27 03:44:32;;;;;;;12.15;4.95;;;0.60;99.90;;;;;;5070503;28;20024;-75
2022/02/27 03:46:58;;;;;;;14.07;4.22;;;0.60;99.90;;;;;;5062689;28;20021;-76
2022/02/27 03:49:24;;;;;;;12.25;4.60;;;0.60;99.90;;;;;;5053581;28;20030;-75
2022/02/27 03:51:50;;;;;;;12.10;4.30;;;0.60;99.90;;;;;;5065028;28;20021;-75
2022/02/27 03:54:17;;;;;;;20.08;6.15;;;0.60;99.90;;;;;;5069113;28;20044;-76
2022/02/27 03:56:43;;;;;;;12.20;3.88;;;0.60;99.90;;;;;;5070833;28;20070;-76
2022/02/27 03:59:09;;;;;;;8.65;3.92;;;0.70;99.90;;;;;;5070912;28;20024;-76
2022/02/27 04:01:34;;;;;;;12.68;4.75;;;0.90;99.90;;;;;;5064684;28;20028;-75
2022/02/27 04:04:01;;;;;;;9.40;3.70;;;1.00;99.90;;;;;;5061228;28;20063;-75
2022/02/27 04:06:27;;;;;;;7.63;4.00;;;0.90;99.90;;;;;;5070809;28;20021;-76
2022/02/27 04:08:52;;;;;;;8.65;4.63;;;0.90;99.90;;;;;;5066668;28;20040;-76
2022/02/27 04:11:18;;;;;;;12.05;4.45;;;0.90;99.90;;;;;;5061875;28;20029;-75
2022/02/27 04:13:43;;;;;;;10.70;4.95;;;0.80;99.90;;;;;;5061200;28;20020;-75
2022/02/27 04:16:09;;;;;;;12.20;4.35;;;0.80;99.90;;;;;;5070721;28;20481;-76
2022/02/27 04:18:35;;;;;;;10.38;4.05;;;0.70;99.90;;;;;;5054438;28;20438;-75
2022/02/27 04:21:00;;;;;;;14.63;4.35;;;0.60;99.90;;;;;;5072443;28;20133;-75
2022/02/27 04:23:26;;;;;;;12.95;4.47;;;0.60;99.90;;;;;;5055963;28;20025;-77
2022/02/27 04:25:53;;;;;;;9.73;4.60;;;0.50;99.90;;;;;;5067104;28;20057;-75
2022/02/27 04:28:18;;;;;;;11.10;4.85;;;0.40;99.90;;;;;;5072923;28;20104;-74
2022/02/27 04:30:44;;;;;;;8.75;4.03;;;0.40;99.90;;;;;;5074609;28;20040;-76
2022/02/27 04:33:09;;;;;;;8.18;4.40;;;0.40;99.90;;;;;;5059759;28;20020;-76
2022/02/27 04:35:35;;;;;;;8.20;4.57;;;0.40;99.90;;;;;;5065609;28;20021;-75
2022/02/27 04:38:00;;;;;;;9.85;3.88;;;0.40;99.90;;;;;;5074577;28;20021;-76
2022/02/27 04:40:26;;;;;;;10.40;4.47;;;0.30;99.90;;;;;;5063105;28;20016;-75
2022/02/27 04:42:51;;;;;;;9.15;4.60;;;0.40;99.90;;;;;;5073766;28;20108;-75
2022/02/27 04:45:17;;;;;;;9.15;4.80;;;0.30;99.90;;;;;;5074110;28;20060;-76
2022/02/27 04:47:42;;;;;;;16.75;5.65;;;0.30;99.90;;;;;;5069406;28;20025;-76
2022/02/27 04:50:09;;;;;;;9.43;5.22;;;0.20;99.90;;;;;;5070892;28;20085;-76
2022/02/27 04:52:35;;;;;;;11.35;4.97;;;0.20;99.90;;;;;;5055579;28;20021;-75
2022/02/27 04:55:01;;;;;;;14.70;6.07;;;0.20;99.90;;;;;;5069985;28;20033;-77
2022/02/27 04:57:26;;;;;;;14.07;4.65;;;0.20;99.90;;;;;;5074145;28;20040;-75
2022/02/27 04:59:52;;;;;;;9.50;4.60;;;0.20;99.90;;;;;;5074007;28;20032;-76
2022/02/27 05:02:17;;;;;;;10.85;5.00;;;0.20;99.90;;;;;;5073657;28;20078;-75
2022/02/27 05:04:43;;;;;;;9.57;4.97;;;0.10;99.90;;;;;;5072971;28;20070;-75
2022/02/27 05:07:08;;;;;;;9.90;4.78;;;0.20;99.90;;;;;;5070279;28;20025;-75
2022/02/27 05:09:34;;;;;;;11.05;4.82;;;0.10;99.90;;;;;;5051063;28;20281;-75
2022/02/27 05:12:00;;;;;;;11.32;5.53;;;0.10;99.90;;;;;;5073631;28;20040;-75
2022/02/27 05:14:26;;;;;;;10.38;5.13;;;0.10;99.90;;;;;;5060153;28;20093;-76
2022/02/27 05:16:52;;;;;;;8.88;5.00;;;0.10;99.90;;;;;;5068652;28;20028;-76
2022/02/27 05:19:17;;;;;;;16.38;5.03;;;0.10;99.90;;;;;;5069969;28;20041;-76
2022/02/27 05:21:43;;;;;;;14.98;4.63;;;0.10;99.90;;;;;;5051510;28;20022;-76
2022/02/27 05:24:10;;;;;;;12.27;5.50;;;0.10;99.90;;;;;;5056922;28;20408;-75
2022/02/27 05:26:35;;;;;;;9.45;4.85;;;0.10;99.90;;;;;;5049506;28;20028;-75
2022/02/27 05:29:01;;;;;;;7.68;5.10;;;0.20;99.90;;;;;;5069564;28;20021;-76
2022/02/27 05:31:27;;;;;;;9.30;5.22;;;0.10;99.90;;;;;;5047873;28;20031;-75
2022/02/27 05:33:52;;;;;;;11.07;5.93;;;0.00;99.90;;;;;;5058819;28;20488;-75
2022/02/27 05:36:18;;;;;;;9.20;6.15;;;0.00;99.90;;;;;;5068753;28;20032;-75
2022/02/27 05:38:44;;;;;;;9.18;5.65;;;-0.10;99.90;;;;;;5073483;28;20124;-75
2022/02/27 05:41:09;;;;;;;12.75;5.22;;;-0.10;99.90;;;;;;5063829;28;20024;-75
2022/02/27 05:43:35;;;;;;;8.55;5.35;;;-0.10;99.90;;;;;;5075407;28;20021;-75
2022/02/27 05:46:01;;;;;;;11.45;4.95;;;-0.10;99.90;;;;;;5074952;28;20032;-76
2022/02/27 05:48:26;;;;;;;13.95;7.30;;;-0.10;99.90;;;;;;5060716;28;20136;-75
2022/02/27 05:50:52;;;;;;;13.13;5.50;;;-0.10;99.90;;;;;;5070321;28;20024;-75
2022/02/27 05:53:17;;;;;;;12.80;5.55;;;-0.10;99.90;;;;;;5073293;28;20020;-74
2022/02/27 05:55:43;;;;;;;14.10;5.97;;;-0.10;99.90;;;;;;5057212;28;20127;-75
2022/02/27 05:58:09;;;;;;;11.40;5.43;;;-0.10;99.90;;;;;;5080493;28;20186;-76
2022/02/27 06:00:34;;;;;;;13.40;5.68;;;-0.10;99.90;;;;;;5060447;28;20084;-75
2022/02/27 06:03:00;;;;;;;11.65;6.03;;;-0.10;99.90;;;;;;5081202;28;20035;-75
2022/02/27 06:05:26;;;;;;;13.00;6.25;;;-0.10;99.90;;;;;;5057906;28;20031;-75
2022/02/27 06:07:52;;;;;;;17.15;6.35;;;-0.10;99.90;;;;;;5069356;28;20115;-75
2022/02/27 06:10:18;;;;;;;11.65;6.65;;;-0.10;99.90;;;;;;5073490;28;20029;-74
2022/02/27 06:12:50;;;;;;;12.43;6.10;;;-0.10;99.90;;;;;;5079645;28;20476;-76
2022/02/27 06:15:17;;;;;;;16.95;5.55;;;-0.10;99.90;;;;;;5083540;28;20066;-75
2022/02/27 06:17:43;;;;;;;10.80;5.45;;;-0.10;99.90;;;;;;5076953;28;20074;-75
2022/02/27 06:20:09;;;;;;;9.23;5.35;;;0.10;99.90;;;;;;5078280;28;20026;-76
2022/02/27 06:22:45;;;;;;;15.20;5.72;;;0.20;99.90;;;;;;5079076;28;20027;-75
2022/02/27 06:25:12;;;;;;;16.45;6.65;;;0.20;99.90;;;;;;5087540;28;20482;-75
2022/02/27 06:27:42;;;;;;;11.95;6.20;;;0.20;99.90;;;;;;5080880;28;20028;-75
2022/02/27 06:30:19;;;;;;;13.10;5.72;;;0.20;99.90;;;;;;5088872;28;20020;-75
2022/02/27 06:32:49;;;;;;;13.95;6.75;;;0.30;99.90;;;;;;5084814;28;20024;-75
2022/02/27 06:35:16;;;;;;;13.52;6.22;;;0.20;99.90;;;;;;5073390;28;20052;-75
2022/02/27 06:37:42;;;;;;;14.82;6.30;;;0.20;99.90;;;;;;5080567;28;20052;-75
2022/02/27 06:40:08;;;;;;;14.60;6.13;;;0.30;99.90;;;;;;5066840;28;20032;-75
2022/02/27 06:42:35;;;;;;;12.80;5.93;;;0.30;99.90;;;;;;5063765;28;20021;-76
2022/02/27 06:45:00;;;;;;;10.80;5.82;;;0.30;99.90;;;;;;5077213;28;20029;-75
2022/02/27 06:47:26;;;;;;;12.55;5.47;;;0.40;99.90;;;;;;5064669;28;20027;-75
2022/02/27 06:49:51;;;;;;;8.32;5.68;;;0.60;99.90;;;;;;5085359;28;20032;-74
2022/02/27 06:52:17;;;;;;;10.93;6.28;;;0.70;99.90;;;;;;5091760;28;20103;-75
2022/02/27 06:54:43;;;;;;;9.35;5.80;;;0.80;99.90;;;;;;5089836;28;20052;-75
2022/02/27 06:57:09;;;;;;;13.15;6.15;;;0.90;99.90;;;;;;5087789;28;20031;-74
2022/02/27 06:59:34;;;;;;;13.43;6.25;;;0.90;99.90;;;;;;5089116;28;20067;-74
2022/02/27 07:02:00;;;;;;;7.13;5.65;;;1.10;99.90;;;;;;5067780;28;20025;-74
2022/02/27 07:04:25;;;;;;;12.25;5.50;;;1.20;99.90;;;;;;5084231;28;20071;-75
2022/02/27 07:06:51;;;;;;;10.75;5.93;;;1.40;99.90;;;;;;5089591;28;20023;-75
2022/02/27 07:09:17;;;;;;;11.70;5.63;;;1.40;99.90;;;;;;5077833;28;20034;-75
2022/02/27 07:11:45;;;;;;;10.18;5.43;;;1.60;99.90;;;;;;5080987;28;20056;-76
2022/02/27 07:14:11;;;;;;;10.23;5.95;;;1.70;99.90;;;;;;5083885;28;20028;-74
2022/02/27 07:16:38;;;;;;;12.48;6.60;;;1.80;99.90;;;;;;5081288;28;20063;-76
2022/02/27 07:19:04;;;;;;;8.18;5.20;;;1.90;99.90;;;;;;5075431;28;20031;-75
2022/02/27 07:21:30;;;;;;;10.50;5.45;;;2.00;99.90;;;;;;5070059;28;20025;-75
2022/02/27 07:23:56;;;;;;;9.30;5.22;;;2.00;99.90;;;;;;5069714;28;20027;-76
2022/02/27 07:26:22;;;;;;;10.70;6.38;;;2.10;99.90;;;;;;5072905;28;20075;-75
2022/02/27 07:28:48;;;;;;;8.95;5.70;;;2.20;99.90;;;;;;5056506;28;20028;-74
2022/02/27 07:31:13;;;;;;;14.55;5.85;;;2.20;99.90;;;;;;5066380;28;20030;-74
2022/02/27 07:33:39;;;;;;;8.15;5.60;;;2.20;99.90;;;;;;5073038;28;20039;-75
2022/02/27 07:36:05;;;;;;;8.68;5.72;;;2.30;99.90;;;;;;5071587;28;20068;-76
2022/02/27 07:38:30;;;;;;;9.82;6.05;;;2.50;99.90;;;;;;5071591;28;20481;-76
2022/02/27 07:40:56;;;;;;;8.00;5.18;;;2.50;99.90;;;;;;5057493;28;20017;-75
2022/02/27 07:43:22;;;;;;;12.25;8.77;;;2.60;99.90;;;;;;5066930;28;20074;-75
2022/02/27 07:45:49;;;;;;;8.88;6.57;;;2.60;99.90;;;;;;5072527;28;20038;-74
2022/02/27 07:48:15;;;;;;;14.75;6.30;;;2.70;99.90;;;;;;5062090;28;20023;-75
2022/02/27 07:50:41;;;;;;;8.55;5.72;;;2.80;99.90;;;;;;5067789;28;20017;-75
2022/02/27 07:53:07;;;;;;;8.43;5.93;;;2.90;99.90;;;;;;5049165;28;20403;-77
2022/02/27 07:55:32;;;;;;;8.68;5.32;;;2.90;99.90;;;;;;5066072;28;20013;-75
2022/02/27 07:57:59;;;;;;;9.68;5.60;;;3.00;99.90;;;;;;5074979;28;20414;-75
2022/02/27 08:00:25;;;;;;;8.93;5.22;;;3.00;99.90;;;;;;5075843;28;20029;-76
2022/02/27 08:02:51;;;;;;;11.38;6.45;;;3.10;99.90;;;;;;5068383;28;20501;-76
2022/02/27 08:05:16;;;;;;;9.48;5.68;;;3.10;99.90;;;;;;5073731;28;20076;-77
2022/02/27 08:07:42;;;;;;;10.05;6.00;;;3.20;99.90;;;;;;5063464;28;20531;-76
2022/02/27 08:10:10;;;;;;;8.00;5.95;;;3.30;99.90;;;;;;5074932;28;20035;-76
2022/02/27 08:12:45;;;;;;;8.70;5.88;;;3.40;99.90;;;;;;5073120;28;20100;-77
2022/02/27 08:15:14;;;;;;;10.35;6.25;;;3.40;99.90;;;;;;5074273;28;20142;-76
2022/02/27 08:17:40;;;;;;;12.52;6.50;;;3.50;99.90;;;;;;5078490;28;20017;-75
2022/02/27 08:20:06;;;;;;;8.52;5.70;;;3.70;99.90;;;;;;5075049;28;20035;-76
2022/02/27 08:22:32;;;;;;;9.07;5.82;;;3.70;99.90;;;;;;5058018;28;20021;-75
2022/02/27 08:24:57;;;;;;;6.95;5.18;;;3.80;99.90;;;;;;5071081;28;20029;-76
2022/02/27 08:27:23;;;;;;;11.20;6.38;;;3.80;99.90;;;;;;5069934;28;20025;-76
2022/02/27 08:29:49;;;;;;;7.68;5.38;;;3.80;99.90;;;;;;5073223;28;20045;-76
2022/02/27 08:32:18;;;;;;;10.77;5.65;;;4.00;99.90;;;;;;5072920;28;20397;-76
2022/02/27 08:34:44;;;;;;;9.85;5.20;;;4.10;99.90;;;;;;5066429;28;20342;-76
2022/02/27 08:37:10;;;;;;;6.80;5.20;;;4.30;99.90;;;;;;5075287;28;20029;-76
2022/02/27 08:39:36;;;;;;;12.82;6.53;;;4.30;99.90;;;;;;5071994;28;20040;-76
2022/02/27 08:42:03;;;;;;;10.50;6.45;;;4.40;99.90;;;;;;5068425;28;20077;-75
2022/02/27 08:44:33;;;;;;;8.65;5.55;;;4.50;99.90;;;;;;5060392;28;20038;-76
2022/02/27 08:47:02;;;;;;;7.85;5.78;;;4.60;99.90;;;;;;5046015;28;20425;-77
2022/02/27 08:49:28;;;;;;;6.20;5.43;;;4.70;99.90;;;;;;5074144;28;20543;-75
2022/02/27 08:51:53;;;;;;;10.90;5.28;;;4.70;99.90;;;;;;5068556;28;20116;-77
2022/02/27 08:54:19;;;;;;;10.02;5.47;;;4.70;99.90;;;;;;5067478;28;20361;-75
2022/02/27 08:56:45;;;;;;;7.22;5.22;;;4.80;99.90;;;;;;5071945;28;20025;-78
2022/02/27 08:59:10;;;;;;;11.68;6.07;;;4.90;99.90;;;;;;5061443;28;20123;-77
2022/02/27 09:01:36;;;;;;;8.48;5.43;;;5.00;99.90;;;;;;5069532;28;20020;-77
2022/02/27 09:04:01;;;;;;;9.77;5.30;;;5.10;99.90;;;;;;5069712;28;20029;-76
2022/02/27 09:06:27;;;;;;;8.23;5.72;;;5.30;99.90;;;;;;5076612;28;20021;-77
2022/02/27 09:08:53;;;;;;;7.70;5.10;;;5.40;99.90;;;;;;5072933;28;20469;-76
2022/02/27 09:11:18;;;;;;;6.97;4.95;;;5.50;99.90;;;;;;5064637;28;20049;-76
2022/02/27 09:13:44;;;;;;;8.25;4.80;;;5.70;99.90;;;;;;5067914;28;20111;-75
2022/02/27 09:16:10;;;;;;;9.55;5.10;;;5.80;99.90;;;;;;5078079;28;20025;-75
2022/02/27 09:18:35;;;;;;;4.35;3.95;;;6.00;99.90;;;;;;5072409;28;20037;-77
2022/02/27 09:21:01;;;;;;;8.15;4.20;;;6.10;99.90;;;;;;5061344;28;20025;-76
2022/02/27 09:23:27;;;;;;;7.20;3.58;;;6.10;99.90;;;;;;5071724;28;20029;-76
2022/02/27 09:25:52;;;;;;;5.70;3.33;;;6.30;99.90;;;;;;5067041;28;20032;-76
2022/02/27 09:28:18;;;;;;;4.07;3.20;;;6.50;99.90;;;;;;5073773;28;20025;-76
2022/02/27 09:30:44;;;;;;;4.30;3.20;;;6.40;99.90;;;;;;5071838;28;20519;-75
2022/02/27 09:33:10;;;;;;;6.82;3.55;;;6.40;99.90;;;;;;5078094;28;20027;-75
2022/02/27 09:35:35;;;;;;;7.50;3.90;;;6.50;99.90;;;;;;5078126;28;20021;-77
2022/02/27 09:38:01;;;;;;;5.00;3.92;;;6.50;99.90;;;;;;5061482;28;20020;-75
2022/02/27 09:40:27;;;;;;;7.72;3.78;;;6.60;99.90;;;;;;5078766;28;20016;-76
2022/02/27 09:42:53;;;;;;;6.13;4.05;;;6.80;99.90;;;;;;5076135;28;20626;-76
2022/02/27 09:45:20;;;;;;;7.05;3.25;;;6.90;99.90;;;;;;5066092;28;20025;-77
2022/02/27 09:47:51;;;;;;;4.38;3.65;;;7.00;99.90;;;;;;5074143;28;20017;-76
2022/02/27 09:50:18;;;;;;;6.80;3.97;;;7.10;99.90;;;;;;5069516;28;20496;-77
2022/02/27 09:52:43;;;;;;;5.13;3.38;;;6.90;99.90;;;;;;5072689;28;20074;-76
2022/02/27 09:55:10;;;;;;;5.07;3.70;;;6.90;99.90;;;;;;5064121;28;20036;-76
2022/02/27 09:57:36;;;;;;;6.00;3.75;;;7.20;99.90;;;;;;5073567;28;20030;-77
2022/02/27 10:00:05;;;;;;;4.75;3.33;;;7.30;99.00;;;;;;5072919;28;20111;-76
2022/02/27 10:02:31;;;;;;;5.03;2.70;;;7.40;98.10;;;;;;5071002;28;20047;-76
2022/02/27 10:05:00;;;;;;;7.05;3.20;;;7.40;97.30;;;;;;5053614;28;20031;-77
2022/02/27 10:07:25;;;;;;;4.10;2.80;;;7.40;96.90;;;;;;5065170;28;20020;-76
2022/02/27 10:10:05;;;;;;;3.95;2.58;;;7.20;96.60;;;;;;5073770;28;20025;-76
2022/02/27 10:12:31;;;;;;;4.22;3.30;;;7.20;96.60;;;;;;5055383;28;20016;-77
2022/02/27 10:15:08;;;;;;;4.03;2.92;;;7.10;96.90;;;;;;5071902;28;20434;-76
2022/02/27 10:17:38;;;;;;;4.28;2.78;;;7.20;96.20;;;;;;5067291;28;20040;-76
2022/02/27 10:20:10;;;;;;;5.63;3.03;;;7.10;95.60;;;;;;5072993;28;20123;-77
2022/02/27 10:22:38;;;;;;;4.13;2.80;;;7.00;95.70;;;;;;5070365;28;20103;-76
2022/02/27 10:25:11;;;;;;;4.13;3.03;;;7.00;96.00;;;;;;5055386;28;20658;-78
2022/02/27 10:27:44;;;;;;;4.82;2.80;;;7.10;96.10;;;;;;5071241;28;20020;-76
2022/02/27 10:30:21;;;;;;;4.18;3.05;;;7.40;95.60;;;;;;5059826;28;20028;-77
2022/02/27 10:33:04;;;;;;;5.40;3.08;;;7.60;95.30;;;;;;5055207;28;20085;-76
2022/02/27 10:35:47;;;;;;;3.13;2.80;;;7.60;94.40;;;;;;5070157;28;20473;-76
2022/02/27 10:38:53;;;;;;;6.90;3.15;;;7.60;94.90;;;;;;5051905;28;20086;-76
2022/02/27 10:41:22;;;;;;;3.47;2.47;;;7.60;94.80;;;;;;5053945;28;20115;-76
2022/02/27 10:43:49;;;;;;;5.45;3.42;;;7.70;93.50;;;;;;5072757;28;20533;-76
2022/02/27 10:46:19;;;;;;;3.72;3.05;;;7.60;93.70;;;;;;5052186;28;20040;-76
2022/02/27 10:48:48;;;;;;;4.85;2.72;;;7.70;93.60;;;;;;5063403;28;20024;-77
2022/02/27 10:51:15;;;;;;;5.40;2.42;;;7.80;93.00;;;;;;5061899;28;20051;-77
2022/02/27 10:53:42;;;;;;;3.60;2.63;;;7.90;91.80;;;;;;5057867;28;20029;-77
2022/02/27 10:56:11;;;;;;;3.45;2.58;;;8.00;91.60;;;;;;5072928;28;20025;-76
2022/02/27 10:58:40;;;;;;;6.18;2.40;;;8.10;91.40;;;;;;5064441;28;20021;-76
2022/02/27 11:01:15;;;;;;;6.43;3.03;;;8.10;90.50;;;;;;5057128;28;20025;-76
2022/02/27 11:03:41;;;;;;;5.55;2.47;;;7.90;90.20;;;;;;5066928;28;20154;-77
2022/02/27 11:06:08;;;;;;;4.07;2.10;;;7.80;88.90;;;;;;5075419;28;20040;-77
2022/02/27 11:08:34;;;;;;;3.90;2.28;;;7.90;88.00;;;;;;5074263;28;20099;-76
2022/02/27 11:11:00;;;;;;;3.10;2.42;;;8.10;86.60;;;;;;5063768;28;20052;-77
2022/02/27 11:13:26;;;;;;;5.28;2.85;;;8.20;85.50;;;;;;5071490;28;20032;-77
2022/02/27 11:15:53;;;;;;;6.55;2.50;;;8.30;85.90;;;;;;5064686;28;20566;-77
2022/02/27 11:18:19;;;;;;;4.53;2.20;;;8.30;85.70;;;;;;5071705;28;20075;-76
2022/02/27 11:20:45;;;;;;;3.28;2.35;;;8.10;84.60;;;;;;5060130;28;20263;-75
2022/02/27 11:23:10;;;;;;;3.70;2.15;;;8.00;85.00;;;;;;5060490;28;20061;-76
2022/02/27 11:25:36;;;;;;;4.47;2.75;;;7.90;83.60;;;;;;5048063;28;20023;-76
2022/02/27 11:28:07;;;;;;;3.42;2.60;;;7.90;84.30;;;;;;5066328;28;20023;-77
2022/02/27 11:30:33;;;;;;;;;;;8.10;82.90;;;;;;5063221;28;20128;-76
2022/02/27 11:33:06;;;;;;;2.63;2.17;;;8.10;82.60;;;;;;5062019;28;20384;-76
2022/02/27 11:35:46;;;;;;;5.43;2.42;;;8.20;84.10;;;;;;5069742;28;20029;-78
2022/02/27 11:38:30;;;;;;;2.50;2.25;;;8.30;82.90;;;;;;5072495;28;20024;-76
2022/02/27 11:40:59;;;;;;;3.63;3.17;;;8.40;83.90;;;;;;5069650;28;20028;-76
2022/02/27 11:43:56;;;;;;;3.75;2.60;;;8.40;80.40;;;;;;5050450;28;20025;-77
2022/02/27 11:46:39;;;;;;;2.42;1.95;;;8.70;80.20;;;;;;5071131;28;20016;-76
2022/02/27 11:49:09;;;;;;;4.43;2.80;;;8.80;78.80;;;;;;5059557;28;20506;-78
2022/02/27 11:51:47;;;;;;;4.95;2.67;;;9.00;78.90;;;;;;5055951;28;20031;-77
2022/02/27 11:54:44;;;;;;;3.92;2.33;;;8.80;79.40;;;;;;5076887;28;20091;-76
2022/02/27 11:57:17;;;;;;;3.55;2.33;;;8.70;80.50;;;;;;5068847;28;20452;-77
2022/02/27 11:59:52;;;;;;;2.95;2.53;;;8.80;79.00;;;;;;5068987;28;20388;-78
2022/02/27 12:02:35;;;;;;;3.45;2.70;;;8.70;77.90;;;;;;5064165;28;20099;-76
2022/02/27 12:05:04;;;;;;;3.88;2.65;;;8.60;79.50;;;;;;5053116;28;20111;-76
2022/02/27 12:07:49;;;;;;;5.07;3.33;;;8.50;80.30;;;;;;5055753;28;20021;-77
2022/02/27 12:10:35;;;;;;;5.18;2.65;;;8.30;80.50;;;;;;5071467;28;20041;-77
2022/02/27 12:13:00;;;;;;;3.47;2.70;;;8.40;80.50;;;;;;5068804;28;20433;-76
2022/02/27 12:15:31;;;;;;;3.88;2.83;;;8.30;79.60;;;;;;5072223;28;20024;-76
2022/02/27 12:17:58;;;;;;;4.00;2.75;;;8.10;81.00;;;;;;5058737;28;20031;-77
2022/02/27 12:20:50;;;;;;;4.22;2.92;;;8.10;81.90;;;;;;5049019;28;20124;-76
2022/02/27 12:23:28;;;;;;;3.38;3.00;;;8.20;82.60;;;;;;5071954;28;20553;-77
2022/02/27 12:25:54;;;;;;;5.90;3.05;;;8.50;82.10;;;;;;5071387;28;20056;-76
2022/02/27 12:28:47;;;;;;;5.88;3.03;;;8.50;80.80;;;;;;5066152;28;20025;-76
2022/02/27 12:31:27;;;;;;;5.22;2.85;;;8.40;80.30;;;;;;5057775;28;20514;-77
2022/02/27 12:33:54;;;;;;;5.03;3.10;;;8.20;81.20;;;;;;5070204;28;20040;-77
2022/02/27 12:36:28;;;;;;;3.78;2.97;;;8.20;80.50;;;;;;5052496;28;20027;-77
2022/02/27 12:38:58;;;;;;;4.60;2.67;;;8.10;80.60;;;;;;5071609;28;20024;-77
2022/02/27 12:41:32;;;;;;;4.82;3.05;;;8.10;81.70;;;;;;5064334;28;20016;-75
2022/02/27 12:43:58;;;;;;;5.68;3.20;;;8.20;82.70;;;;;;5074940;28;20395;-76
2022/02/27 12:46:24;;;;;;;6.95;3.67;;;8.30;83.20;;;;;;5069981;28;20028;-76
2022/02/27 12:51:37;;;;;;;4.93;2.95;;;8.40;84.60;;;;;;5062620;28;20123;-77
2022/02/27 12:54:13;;;;;;;5.05;2.42;;;8.50;83.80;;;;;;5075348;28;20508;-76
2022/02/27 12:56:39;;;;;;;4.22;2.90;;;8.60;80.30;;;;;;5067879;28;20427;-76